Ana Sayfa
METAR-TAF:

METAR-TAF

Havaalanları :

Demopolis, Alabama, Amerika Birleşik Devletleri

Enlem: 32-27-50N, Boylam: 087-57-15W, yükseklik: 34 m

Güncel hava durumu gözlemi

Rapor saat 18:15 UTC de 18 dakika önce yapıldı.
Rüzgar kuzey/kuzeydoğudan 3 kt
Sıcaklık 36°C
Nem 39%
Basınç 1014 hPa
Görüş mesafesi: 16.1 km
Açık gökyüzü

METAR: KDYA 251815Z AUTO 02003KT 10SM CLR 36/20 A2995 RMK AO2 T03600202

Saat: 13:33 (18:33 UTC)


TAF: eksik

4.000'den fazla havaalanı için hava durumu gözlemleri ve tahminleri (METAR ve TAF raporları).

Kullanılabilir istasyonlar harita üzerinde sarı ve kırmızı noktalarla gösterilir.

İstasyonun adını görmek için fareyi noktanın üzerinde gezdirin.

Sonrasında hava gözlem ve tahminlerini görmek için tıklayın.

Haritayı değiştirmek için: yaklaştırmak için siyah artı işaretli yeşil düğmeye ve uzaklaştırmak için de eksi işaretli düğmeye hızla tıklayın; bitişik haritalar için yeşil okları kullanın.


METAR-TAF: